Time;durP1;ratioP1;P1;durP2;ratioP2;P2;SDS_P1;SDS_P2;PMS_P1;PMS_P2;Temp;Humidity;BMP_temperature;BMP_pressure;BME280_temperature;BME280_humidity;BME280_pressure;Samples;Min_cycle;Max_cycle;Signal;HPM_P1;HPM_P2
2023/03/31 00:01:18;;;;;;;6.95;3.10;;;10.00;99.90;;;9.00;100.00;96753.13;5050815;28;20887;-75
2023/03/31 00:03:44;;;;;;;7.87;2.87;;;10.00;99.90;;;8.95;100.00;96758.34;5050023;28;20519;-74
2023/03/31 00:06:16;;;;;;;9.23;3.05;;;9.90;99.90;;;8.97;100.00;96755.47;5048971;28;20761;-73
2023/03/31 00:08:43;;;;;;;12.70;3.10;;;9.90;99.90;;;8.93;100.00;96752.56;5050125;28;20413;-73
2023/03/31 00:11:10;;;;;;;6.07;2.70;;;9.90;99.90;;;8.87;100.00;96754.34;5050700;28;20417;-74
2023/03/31 00:13:38;;;;;;;9.43;2.95;;;9.80;99.90;;;8.86;100.00;96750.16;5050861;28;20906;-74
2023/03/31 00:16:07;;;;;;;7.82;2.60;;;9.80;99.90;;;8.83;100.00;96741.94;5051124;28;20404;-74
2023/03/31 00:18:34;;;;;;;14.52;4.00;;;9.80;99.90;;;8.85;100.00;96737.22;5049345;28;20487;-74
2023/03/31 00:21:07;;;;;;;10.88;3.13;;;9.80;99.90;;;8.88;100.00;96734.84;5050650;28;20763;-74
2023/03/31 00:23:35;;;;;;;11.50;3.37;;;9.80;99.90;;;8.87;100.00;96738.53;5048400;28;20444;-74
2023/03/31 00:26:01;;;;;;;5.78;2.67;;;9.80;99.90;;;8.90;100.00;96724.81;5050724;28;20406;-74
2023/03/31 00:28:26;;;;;;;7.07;2.70;;;9.80;99.90;;;8.92;100.00;96719.28;5049696;28;20409;-74
2023/03/31 00:31:00;;;;;;;10.57;3.23;;;9.90;99.90;;;8.95;100.00;96718.75;5050394;28;20424;-74
2023/03/31 00:33:25;;;;;;;7.07;2.67;;;9.90;99.90;;;8.93;100.00;96708.50;5049381;28;20417;-74
2023/03/31 00:35:51;;;;;;;9.25;3.00;;;9.90;99.90;;;8.95;100.00;96704.81;5048878;28;20409;-74
2023/03/31 00:38:20;;;;;;;8.20;2.92;;;9.90;99.90;;;8.98;100.00;96706.91;5049669;28;20456;-75
2023/03/31 00:40:47;;;;;;;9.07;2.85;;;9.90;99.90;;;8.98;100.00;96699.00;5050410;28;20911;-74
2023/03/31 00:43:28;;;;;;;8.65;2.72;;;9.90;99.90;;;9.01;100.00;96694.00;5050274;28;20416;-74
2023/03/31 00:46:06;;;;;;;14.30;3.83;;;9.90;99.90;;;9.00;100.00;96692.41;5050483;28;20410;-74
2023/03/31 00:48:33;;;;;;;12.63;3.10;;;9.90;99.90;;;8.99;100.00;96688.19;5048254;28;20424;-74
2023/03/31 00:51:06;;;;;;;16.33;3.58;;;9.90;99.90;;;8.98;100.00;96699.00;5050094;28;20415;-74
2023/03/31 00:53:33;;;;;;;9.23;3.00;;;9.90;99.90;;;9.03;100.00;96686.59;5050215;28;20412;-74
2023/03/31 00:56:06;;;;;;;4.80;2.60;;;10.00;99.90;;;9.08;100.00;96685.84;5050338;28;20401;-74
2023/03/31 00:58:32;;;;;;;12.07;3.35;;;10.00;99.90;;;9.09;100.00;96679.50;5048739;28;20413;-74
2023/03/31 01:01:02;;;;;;;10.82;3.13;;;10.00;99.90;;;9.04;100.00;96685.56;5040507;28;20452;-75
2023/03/31 01:03:32;;;;;;;7.10;3.20;;;10.00;99.90;;;9.10;100.00;96676.59;5049829;28;20494;-74
2023/03/31 01:06:03;;;;;;;13.40;3.13;;;10.00;99.90;;;9.16;100.00;96678.22;5040506;28;20512;-74
2023/03/31 01:08:31;;;;;;;13.68;3.80;;;10.10;99.90;;;9.21;100.00;96680.06;5040921;28;20520;-74
2023/03/31 01:11:01;;;;;;;9.80;3.13;;;10.10;99.90;;;9.29;100.00;96676.94;5049937;28;20751;-74
2023/03/31 01:13:28;;;;;;;14.70;3.27;;;10.20;99.90;;;9.32;100.00;96663.22;5049983;28;20398;-74
2023/03/31 01:15:54;;;;;;;13.85;3.38;;;10.20;99.90;;;9.38;100.00;96648.97;5050414;28;20406;-74
2023/03/31 01:18:22;;;;;;;6.57;2.60;;;10.30;99.90;;;9.45;100.00;96643.44;5048448;28;20425;-74
2023/03/31 01:21:22;;;;;;;10.23;2.78;;;10.40;99.90;;;9.45;100.00;96624.94;5049816;28;20905;-74
2023/03/31 01:24:36;;;;;;;7.38;2.70;;;10.40;99.90;;;9.47;100.00;96620.97;5048726;28;20440;-74
2023/03/31 01:27:52;;;;;;;10.75;3.42;;;10.40;99.90;;;9.46;100.00;96611.47;5030100;28;20407;-74
2023/03/31 01:31:05;;;;;;;13.30;3.60;;;10.40;99.90;;;9.45;100.00;96620.44;5028872;28;20744;-74
2023/03/31 01:34:09;;;;;;;10.50;3.25;;;10.30;99.90;;;9.45;100.00;96625.75;5048883;28;20532;-74
2023/03/31 01:37:08;;;;;;;12.60;3.28;;;10.40;99.90;;;9.44;100.00;96621.50;5033193;28;20430;-74
2023/03/31 01:40:17;;;;;;;6.40;3.00;;;10.40;99.90;;;9.46;100.00;96629.97;5051970;28;20460;-74
2023/03/31 01:42:52;;;;;;;7.20;3.15;;;10.40;99.90;;;9.52;100.00;96633.41;5033434;28;20922;-74
2023/03/31 01:45:30;;;;;;;4.97;2.63;;;10.40;99.90;;;9.55;100.00;96638.16;5034002;28;20457;-74
2023/03/31 01:48:01;;;;;;;6.85;3.03;;;10.40;99.90;;;9.55;100.00;96638.16;5039623;28;20409;-74
2023/03/31 01:50:33;;;;;;;8.98;3.25;;;10.40;99.90;;;9.58;100.00;96635.78;5045612;28;20778;-74
2023/03/31 01:53:06;;;;;;;12.00;3.33;;;10.50;99.90;;;9.56;100.00;96637.88;5053570;28;20389;-74
2023/03/31 01:55:38;;;;;;;15.05;3.35;;;10.50;99.90;;;9.61;100.00;96635.28;5053630;28;20409;-74
2023/03/31 01:58:10;;;;;;;10.27;3.10;;;10.50;99.90;;;9.54;100.00;96644.50;5052534;28;20417;-74
2023/03/31 02:00:42;;;;;;;12.05;3.40;;;10.50;99.90;;;9.89;100.00;96649.03;5053370;28;20456;-74
2023/03/31 02:03:15;;;;;;;13.05;2.92;;;10.60;99.90;;;9.73;100.00;96639.50;5053204;28;20421;-73
2023/03/31 02:05:47;;;;;;;9.38;2.60;;;10.60;99.90;;;9.72;100.00;96625.47;5053568;28;20410;-74
2023/03/31 02:08:19;;;;;;;12.97;3.03;;;10.60;99.90;;;9.76;100.00;96629.22;5049987;28;20445;-74
2023/03/31 02:10:48;;;;;;;12.00;3.50;;;10.60;99.90;;;9.69;100.00;96623.38;5053022;28;20405;-74
2023/03/31 02:13:17;;;;;;;7.63;2.78;;;10.60;99.90;;;9.66;100.00;96631.81;5051833;28;20404;-73
2023/03/31 02:15:47;;;;;;;9.38;3.10;;;10.60;99.90;;;9.62;100.00;96628.91;5053201;28;20887;-73
2023/03/31 02:18:19;;;;;;;14.95;3.70;;;10.50;99.90;;;9.56;100.00;96618.59;5051691;28;20428;-74
2023/03/31 02:20:49;;;;;;;10.05;2.85;;;10.40;99.90;;;9.51;100.00;96605.41;5050445;28;20417;-74
2023/03/31 02:23:21;;;;;;;8.43;2.80;;;10.40;99.90;;;9.47;100.00;96588.50;5052721;28;20420;-74
2023/03/31 02:25:52;;;;;;;11.15;3.17;;;10.40;99.90;;;9.39;100.00;96589.81;5052001;28;20417;-73
2023/03/31 02:28:22;;;;;;;12.93;3.25;;;10.30;99.90;;;9.34;100.00;96589.78;5053020;28;20397;-74
2023/03/31 02:30:58;;;;;;;11.57;3.20;;;10.30;99.90;;;9.27;100.00;96586.59;5051937;28;20448;-74
2023/03/31 02:33:24;;;;;;;9.33;3.07;;;10.20;99.90;;;9.21;100.00;96572.59;5051994;28;20425;-74
2023/03/31 02:35:50;;;;;;;12.98;3.70;;;10.20;99.90;;;9.20;100.00;96572.88;5052154;28;20470;-74
2023/03/31 02:38:16;;;;;;;8.30;3.10;;;10.10;99.90;;;9.20;100.00;96564.94;5052797;28;20429;-74
2023/03/31 02:40:42;;;;;;;8.90;3.30;;;10.10;99.90;;;9.18;100.00;96538.78;5051603;28;20417;-73
2023/03/31 02:43:10;;;;;;;8.02;3.15;;;10.10;99.90;;;9.16;100.00;96530.38;5052315;28;20466;-74
2023/03/31 02:45:41;;;;;;;10.40;3.20;;;10.10;99.90;;;9.16;100.00;96509.25;5051603;28;20425;-74
2023/03/31 02:48:15;;;;;;;6.70;3.20;;;10.10;99.90;;;9.15;100.00;96509.50;5052554;28;20393;-73
2023/03/31 02:51:25;;;;;;;8.32;3.50;;;10.10;99.90;;;9.17;100.00;96496.84;5051452;28;20550;-74
2023/03/31 02:54:20;;;;;;;14.40;4.03;;;10.10;99.90;;;9.17;100.00;96496.84;5015241;28;20433;-74
2023/03/31 02:57:05;;;;;;;20.37;4.33;;;10.10;99.90;;;9.13;100.00;96493.13;5030707;28;20427;-74
2023/03/31 02:59:45;;;;;;;15.70;4.97;;;10.10;99.90;;;9.11;100.00;96487.31;5037906;28;20775;-74
2023/03/31 03:02:22;;;;;;;9.52;3.60;;;10.00;99.90;;;9.11;100.00;96476.75;5051899;28;20417;-74
2023/03/31 03:05:19;;;;;;;7.72;3.40;;;10.00;99.90;;;9.10;100.00;96465.38;5052443;28;20393;-74
2023/03/31 03:07:54;;;;;;;13.10;3.50;;;10.00;99.90;;;9.08;100.00;96461.44;5051287;28;20841;-73
2023/03/31 03:10:33;;;;;;;6.20;3.10;;;10.00;99.90;;;9.05;100.00;96452.19;5051173;28;20787;-74
2023/03/31 03:13:08;;;;;;;10.00;3.00;;;10.00;99.90;;;9.02;100.00;96444.78;5051920;28;20398;-73
2023/03/31 03:15:45;;;;;;;10.38;3.45;;;10.00;99.90;;;8.96;100.00;96431.88;5052132;28;20397;-74
2023/03/31 03:18:11;;;;;;;8.48;3.58;;;9.90;99.90;;;8.88;100.00;96425.25;5050735;28;20417;-74
2023/03/31 03:20:41;;;;;;;13.35;4.10;;;9.80;99.90;;;8.82;100.00;96421.03;5048966;28;20494;-74
2023/03/31 03:23:07;;;;;;;13.90;4.30;;;9.80;99.90;;;8.73;100.00;96402.28;5051351;28;20409;-73
2023/03/31 03:25:34;;;;;;;16.38;4.40;;;9.70;99.90;;;8.67;100.00;96397.28;5050673;28;20791;-73
2023/03/31 03:28:00;;;;;;;15.88;4.32;;;9.60;99.90;;;8.61;100.00;96385.16;5051854;28;20397;-74
2023/03/31 03:30:26;;;;;;;12.20;4.25;;;9.60;99.90;;;8.52;100.00;96375.13;5051675;28;20413;-73
2023/03/31 03:32:54;;;;;;;10.98;4.15;;;9.50;99.90;;;8.49;100.00;96375.63;5051432;28;20443;-74
2023/03/31 03:35:20;;;;;;;7.30;3.80;;;9.50;99.90;;;8.45;100.00;96363.25;5050030;28;20444;-73
2023/03/31 03:37:46;;;;;;;8.00;3.97;;;9.40;99.90;;;8.43;100.00;96354.78;5051413;28;20401;-73
2023/03/31 03:40:12;;;;;;;11.63;3.93;;;9.40;99.90;;;8.42;100.00;96366.41;5051631;28;20401;-73
2023/03/31 03:42:38;;;;;;;9.88;4.10;;;9.40;99.90;;;8.39;100.00;96359.00;5051296;28;20504;-74
2023/03/31 03:45:05;;;;;;;10.90;4.20;;;9.40;99.90;;;8.37;100.00;96351.34;5050321;28;20488;-73
2023/03/31 03:47:35;;;;;;;9.63;4.63;;;9.30;99.90;;;8.40;100.00;96348.22;5055201;28;20402;-74
2023/03/31 03:50:04;;;;;;;15.90;5.32;;;9.40;99.90;;;8.41;100.00;96344.53;5051504;28;20891;-75
2023/03/31 03:52:30;;;;;;;8.80;4.60;;;9.40;99.90;;;8.47;100.00;96332.91;5051087;28;20405;-74
2023/03/31 03:54:56;;;;;;;10.80;4.40;;;9.40;99.90;;;8.52;100.00;96326.84;5049096;28;20932;-73
2023/03/31 03:57:22;;;;;;;7.78;4.20;;;9.50;99.90;;;8.54;100.00;96311.56;5048761;28;20407;-73
2023/03/31 03:59:48;;;;;;;10.07;4.10;;;9.50;99.90;;;8.52;100.00;96306.53;5047775;28;20837;-73
2023/03/31 04:02:14;;;;;;;11.18;4.30;;;9.50;99.90;;;8.50;100.00;96311.28;5048299;28;20475;-74
2023/03/31 04:04:40;;;;;;;12.53;4.10;;;9.50;99.90;;;8.48;100.00;96309.97;5050719;28;20405;-72
2023/03/31 04:07:07;;;;;;;14.85;4.90;;;9.50;99.90;;;8.43;100.00;96288.88;5050272;28;20455;-74
2023/03/31 04:09:33;;;;;;;13.48;5.72;;;9.40;99.90;;;8.38;100.00;96292.31;5048399;28;20416;-73
2023/03/31 04:11:59;;;;;;;11.43;4.85;;;9.40;99.90;;;8.34;100.00;96287.81;5050675;28;20402;-73
2023/03/31 04:14:25;;;;;;;12.30;5.20;;;9.30;99.90;;;8.29;100.00;96270.13;5047785;28;20420;-72
2023/03/31 04:16:51;;;;;;;16.33;5.23;;;9.30;99.90;;;8.26;100.00;96269.88;5051544;28;20491;-73
2023/03/31 04:19:17;;;;;;;10.20;4.43;;;9.20;99.90;;;8.25;100.00;96258.53;5050998;28;20440;-74
2023/03/31 04:21:49;;;;;;;15.38;5.25;;;9.20;99.90;;;8.28;100.00;96263.25;5046574;28;20460;-74
2023/03/31 04:24:20;;;;;;;15.70;5.72;;;9.20;99.90;;;8.28;100.00;96252.72;5047452;28;20535;-74
2023/03/31 04:26:49;;;;;;;11.95;5.00;;;9.20;99.90;;;8.32;100.00;96240.63;5050514;28;20776;-74
2023/03/31 04:29:15;;;;;;;15.88;5.38;;;9.30;99.90;;;8.39;100.00;96245.63;5051823;28;20446;-73
2023/03/31 04:31:42;;;;;;;19.38;6.18;;;9.30;99.90;;;8.40;100.00;96240.09;5061044;22;20536;-73
2023/03/31 04:34:12;;;;;;;15.45;5.68;;;9.30;99.90;;;8.41;100.00;96246.16;5046411;28;20426;-73
2023/03/31 04:36:45;;;;;;;14.60;5.63;;;9.40;99.90;;;8.43;100.00;96244.81;5051283;28;21271;-74
2023/03/31 04:39:12;;;;;;;11.25;4.88;;;9.40;99.90;;;8.44;100.00;96248.25;5050812;28;20841;-73
2023/03/31 04:41:39;;;;;;;9.35;4.32;;;9.40;99.90;;;8.50;100.00;96252.47;5031168;28;20419;-74
2023/03/31 04:44:05;;;;;;;9.85;4.78;;;9.40;99.90;;;8.56;100.00;96242.72;5032254;28;20773;-74
2023/03/31 04:46:32;;;;;;;13.75;5.40;;;9.50;99.90;;;8.58;100.00;96225.56;5035855;28;20414;-74
2023/03/31 04:48:59;;;;;;;10.43;4.57;;;9.60;99.90;;;8.62;100.00;96226.63;5027886;28;20407;-74
2023/03/31 04:51:25;;;;;;;14.03;5.30;;;9.60;99.90;;;8.67;100.00;96221.31;5027391;28;20427;-73
2023/03/31 04:53:51;;;;;;;13.18;5.35;;;9.60;99.90;;;8.72;100.00;96220.53;5033079;28;20414;-73
2023/03/31 04:56:17;;;;;;;16.73;5.90;;;9.70;99.90;;;8.78;100.00;96222.09;5032010;28;20505;-72
2023/03/31 04:58:44;;;;;;;9.80;5.00;;;9.70;99.90;;;8.76;100.00;96221.56;5027280;28;20411;-72
2023/03/31 05:01:16;;;;;;;10.18;4.85;;;9.70;99.90;;;8.76;100.00;96218.94;5028130;28;20507;-73
2023/03/31 05:03:42;;;;;;;12.68;5.20;;;9.70;99.90;;;8.76;100.00;96211.03;5029874;28;20415;-73
2023/03/31 05:06:08;;;;;;;15.77;6.20;;;9.70;99.90;;;8.81;100.00;96208.34;5029665;28;20414;-73
2023/03/31 05:08:34;;;;;;;16.13;5.90;;;9.70;99.90;;;8.79;100.00;96208.66;5028717;28;20800;-73
2023/03/31 05:11:02;;;;;;;11.95;5.32;;;9.70;99.90;;;8.79;100.00;96208.66;5026454;28;20475;-73
2023/03/31 05:13:28;;;;;;;10.70;5.55;;;9.70;99.90;;;8.79;100.00;96219.22;5027297;28;20458;-72
2023/03/31 05:15:55;;;;;;;13.40;5.82;;;9.70;99.90;;;8.82;100.00;96237.13;5028927;28;20404;-72
2023/03/31 05:18:21;;;;;;;17.27;6.90;;;9.70;99.90;;;8.81;100.00;96240.81;5036842;28;20405;-73
2023/03/31 05:20:47;;;;;;;12.80;5.05;;;9.80;99.90;;;8.78;100.00;96251.91;5030849;28;20491;-73
2023/03/31 05:23:14;;;;;;;19.38;7.20;;;9.70;99.90;;;8.80;100.00;96273.53;5033123;28;20421;-73
2023/03/31 05:25:41;;;;;;;20.88;7.05;;;9.70;99.90;;;8.78;100.00;96269.59;5035456;28;20407;-82
2023/03/31 05:28:08;;;;;;;17.58;7.00;;;9.70;99.90;;;8.72;100.00;96266.16;5029460;28;20435;-74
2023/03/31 05:30:34;;;;;;;22.85;7.47;;;9.70;99.90;;;8.68;100.00;96256.41;5038661;28;20785;-74
2023/03/31 05:33:02;;;;;;;24.15;8.55;;;9.70;99.90;;;8.63;100.00;96265.13;5025742;28;20423;-74
2023/03/31 05:35:28;;;;;;;24.75;7.45;;;9.60;99.90;;;8.59;100.00;96258.78;5026141;28;20399;-76
2023/03/31 05:37:54;;;;;;;25.92;8.88;;;9.60;99.90;;;8.56;100.00;96243.50;5031009;28;20770;-76
2023/03/31 05:40:23;;;;;;;29.48;9.57;;;9.50;99.90;;;8.54;100.00;96243.78;5030254;28;20423;-75
2023/03/31 05:42:49;;;;;;;35.35;9.77;;;9.50;99.90;;;8.53;100.00;96238.75;5024404;28;20423;-76
2023/03/31 05:45:15;;;;;;;33.08;10.40;;;9.50;99.90;;;8.52;100.00;96235.34;5030400;28;20432;-76
2023/03/31 05:47:41;;;;;;;43.67;12.07;;;9.50;99.90;;;8.51;100.00;96238.22;5011461;28;20441;-78
2023/03/31 05:50:09;;;;;;;38.50;11.05;;;9.50;99.90;;;8.45;100.00;96220.84;5025570;28;20404;-77
2023/03/31 05:52:35;;;;;;;41.27;10.90;;;9.40;99.90;;;8.44;100.00;96213.97;5029854;28;20411;-76
2023/03/31 05:55:02;;;;;;;35.78;11.10;;;9.40;99.90;;;8.45;100.00;96205.81;5029283;28;20419;-76
2023/03/31 05:57:28;;;;;;;34.65;11.73;;;9.40;99.90;;;8.45;100.00;96189.97;5029465;28;20406;-77
2023/03/31 05:59:54;;;;;;;34.42;12.38;;;9.50;99.90;;;8.47;100.00;96185.25;5029356;28;20399;-76
2023/03/31 06:02:19;;;;;;;43.45;12.50;;;9.50;99.90;;;8.48;100.00;96184.19;5026591;28;20541;-76
2023/03/31 06:04:45;;;;;;;47.50;13.33;;;9.50;99.90;;;8.49;100.00;96187.63;5028914;28;20811;-76
2023/03/31 06:07:13;;;;;;;52.28;14.75;;;9.50;99.90;;;8.51;100.00;96183.63;5028479;28;20917;-77
2023/03/31 06:09:39;;;;;;;41.08;13.38;;;9.50;99.90;;;8.47;100.00;96172.06;5029047;28;20403;-77
2023/03/31 06:12:07;;;;;;;51.67;14.15;;;9.50;99.90;;;8.50;100.00;96165.44;5027719;28;20407;-78
2023/03/31 06:14:33;;;;;;;59.88;13.25;;;9.50;99.90;;;8.54;100.00;96167.28;5029132;28;20409;-78
2023/03/31 06:16:58;;;;;;;51.03;13.00;;;9.50;99.90;;;8.58;100.00;96161.47;5029189;28;20486;-78
2023/03/31 06:19:25;;;;;;;54.23;14.50;;;9.60;99.90;;;8.62;100.00;96157.25;5029214;28;20399;-77
2023/03/31 06:21:51;;;;;;;56.15;14.77;;;9.60;99.90;;;8.65;100.00;96146.94;5031866;28;20435;-77
2023/03/31 06:24:18;;;;;;;52.90;14.35;;;9.60;99.90;;;8.72;100.00;96141.41;5032091;28;20446;-77
2023/03/31 06:26:44;;;;;;;55.63;15.38;;;9.70;99.90;;;8.73;100.00;96146.38;5032963;28;20461;-76
2023/03/31 06:29:10;;;;;;;50.47;13.80;;;9.70;99.90;;;8.76;100.00;96134.50;5030946;28;20438;-77
2023/03/31 06:31:35;;;;;;;49.60;14.00;;;9.70;99.90;;;8.75;100.00;96136.34;5032426;28;20403;-77
2023/03/31 06:34:01;;;;;;;45.53;12.90;;;9.70;99.90;;;8.73;100.00;96135.81;5031972;28;20416;-76
2023/03/31 06:36:27;;;;;;;50.67;12.70;;;9.70;99.90;;;8.76;100.00;96137.94;5032578;28;20437;-77
2023/03/31 06:38:53;;;;;;;57.35;16.70;;;9.70;99.90;;;8.78;100.00;96140.31;5031215;28;20493;-77
2023/03/31 06:41:21;;;;;;;48.40;14.68;;;9.70;99.90;;;8.72;100.00;96147.44;5031906;28;20403;-78
2023/03/31 06:43:47;;;;;;;54.40;15.52;;;9.70;99.90;;;8.69;100.00;96155.13;5032129;28;20415;-79
2023/03/31 06:46:14;;;;;;;52.80;14.80;;;9.70;99.90;;;8.66;100.00;96145.09;5030780;28;20430;-79
2023/03/31 06:48:40;;;;;;;46.80;14.73;;;9.70;99.90;;;8.66;100.00;96150.38;5032308;28;20507;-79
2023/03/31 06:51:07;;;;;;;49.90;15.10;;;9.60;99.90;;;8.66;100.00;96151.16;5031543;28;20458;-75
2023/03/31 06:53:34;;;;;;;51.17;15.55;;;9.60;99.90;;;8.65;100.00;96159.34;5026427;28;21002;-74
2023/03/31 06:56:00;;;;;;;50.65;15.57;;;9.60;99.90;;;8.62;100.00;96178.34;5029169;28;20422;-76
2023/03/31 06:58:27;;;;;;;53.47;16.58;;;9.60;99.90;;;8.60;100.00;96185.72;5030808;28;20509;-73
2023/03/31 07:00:53;;;;;;;58.55;17.67;;;9.60;99.90;;;8.61;100.00;96211.84;5030834;28;20480;-75
2023/03/31 07:03:23;;;;;;;58.17;16.52;;;9.60;99.90;;;8.59;100.00;96218.44;5031870;28;20517;-75
2023/03/31 07:05:51;;;;;;;50.13;15.27;;;9.60;99.90;;;8.59;100.00;96218.44;5030538;28;20912;-75
2023/03/31 07:08:18;;;;;;;45.35;15.60;;;9.60;99.90;;;8.67;100.00;96208.13;5031769;28;20430;-74
2023/03/31 07:10:46;;;;;;;48.57;15.27;;;9.60;99.90;;;8.62;100.00;96210.78;5031078;28;20981;-75
2023/03/31 07:13:12;;;;;;;46.88;15.80;;;9.60;99.90;;;8.66;100.00;96196.00;5031833;28;20465;-73
2023/03/31 07:15:40;;;;;;;44.03;14.25;;;9.60;99.90;;;8.64;100.00;96153.28;5031641;28;20419;-73
2023/03/31 07:18:06;;;;;;;45.70;14.13;;;9.60;99.90;;;8.65;100.00;96140.88;5031327;28;20900;-75
2023/03/31 07:20:32;;;;;;;26.08;10.82;;;9.60;99.90;;;8.67;100.00;96138.75;5028956;28;20430;-74
2023/03/31 07:22:58;;;;;;;38.55;11.73;;;9.60;99.90;;;8.67;100.00;96122.94;5030259;28;20498;-73
2023/03/31 07:25:24;;;;;;;26.02;10.45;;;9.60;99.90;;;8.70;100.00;96138.22;5030527;28;20919;-75
2023/03/31 07:27:50;;;;;;;23.90;9.50;;;9.60;99.90;;;8.64;100.00;96126.91;5029744;28;20418;-76
2023/03/31 07:30:18;;;;;;;27.25;9.65;;;9.60;99.90;;;8.73;100.00;96124.47;5030650;28;20761;-75
2023/03/31 07:32:48;;;;;;;22.67;9.18;;;9.60;99.90;;;8.75;100.00;96130.28;5030646;28;20387;-76
2023/03/31 07:35:15;;;;;;;20.05;9.05;;;9.70;99.90;;;8.72;100.00;96131.59;5030718;28;20529;-73
2023/03/31 07:37:43;;;;;;;16.85;7.22;;;9.60;99.90;;;8.72;100.00;96131.59;5031537;28;20457;-73
2023/03/31 07:40:12;;;;;;;19.05;7.95;;;9.60;99.90;;;8.72;100.00;96133.47;5031010;28;20423;-74
2023/03/31 07:42:38;;;;;;;20.67;7.55;;;9.60;99.90;;;8.75;100.00;96130.28;5031105;28;20411;-73
2023/03/31 07:45:07;;;;;;;18.48;6.63;;;9.70;99.90;;;8.75;100.00;96133.72;5031592;28;20481;-74
2023/03/31 07:47:34;;;;;;;14.35;5.68;;;9.60;99.90;;;8.87;100.00;96123.63;5028764;28;20407;-73
2023/03/31 07:50:01;;;;;;;10.98;5.10;;;9.70;99.90;;;8.98;100.00;96127.03;5030119;28;20416;-75
2023/03/31 07:52:27;;;;;;;10.80;4.95;;;9.80;99.90;;;9.10;100.00;96122.22;5022318;28;20415;-75
2023/03/31 07:54:53;;;;;;;15.18;4.20;;;9.90;99.90;;;9.01;100.00;96121.22;5030809;28;20929;-73
2023/03/31 07:57:19;;;;;;;10.55;3.65;;;9.90;99.90;;;8.96;100.00;96109.88;5031434;28;20461;-73
2023/03/31 07:59:45;;;;;;;10.07;3.70;;;9.80;99.90;;;8.89;100.00;96113.59;5031012;28;20414;-71
2023/03/31 08:02:13;;;;;;;10.00;3.45;;;9.80;99.90;;;8.93;100.00;96117.28;5030381;28;20580;-73
2023/03/31 08:04:41;;;;;;;7.53;3.55;;;9.80;99.90;;;9.31;100.00;96114.97;5024864;28;20482;-72
2023/03/31 08:07:08;;;;;;;7.93;2.92;;;10.10;99.90;;;9.26;100.00;96110.50;5031134;28;20402;-72
2023/03/31 08:09:34;;;;;;;7.22;2.65;;;10.10;99.90;;;9.42;100.00;96123.63;5029825;28;20405;-72
2023/03/31 08:12:00;;;;;;;8.30;2.67;;;10.20;99.90;;;9.34;100.00;96103.84;5030520;28;20457;-72
2023/03/31 08:14:26;;;;;;;7.57;2.70;;;10.10;99.90;;;9.31;100.00;96107.84;5030297;28;20422;-73
2023/03/31 08:16:54;;;;;;;7.63;2.47;;;10.10;99.90;;;9.22;100.00;96112.13;5030936;28;20450;-72
2023/03/31 08:19:21;;;;;;;7.47;2.33;;;10.10;99.90;;;9.30;100.00;96108.91;5030908;28;20407;-73
2023/03/31 08:21:47;;;;;;;3.50;2.20;;;10.20;99.90;;;9.46;100.00;96112.25;5028479;28;20492;-71
2023/03/31 08:24:14;;;;;;;3.33;2.13;;;10.20;99.90;;;9.57;100.00;96091.81;5029999;28;20416;-72
2023/03/31 08:26:40;;;;;;;4.88;2.20;;;10.40;99.90;;;9.51;100.00;96090.28;5030744;28;20414;-71
2023/03/31 08:29:06;;;;;;;7.07;1.90;;;10.40;99.90;;;9.49;100.00;96087.91;5029881;28;20419;-72
2023/03/31 08:31:32;;;;;;;6.60;2.20;;;10.40;99.90;;;9.75;100.00;96083.22;5028394;28;20856;-70
2023/03/31 08:33:58;;;;;;;5.88;2.13;;;10.50;99.90;;;9.79;100.00;96078.16;5029101;28;20418;-72
2023/03/31 08:36:25;;;;;;;4.53;2.28;;;10.60;99.90;;;9.82;100.00;96081.03;5030450;28;20415;-72
2023/03/31 08:38:52;;;;;;;6.18;2.15;;;10.70;99.90;;;10.13;100.00;96084.19;5030273;28;20897;-72
2023/03/31 08:41:46;;;;;;;5.33;2.20;;;10.80;99.90;;;10.03;100.00;96079.78;5030264;28;20931;-73
2023/03/31 08:44:21;;;;;;;8.70;2.33;;;10.90;99.90;;;10.04;100.00;96075.28;5030415;28;20886;-73
2023/03/31 08:46:48;;;;;;;12.68;2.70;;;10.80;99.90;;;9.99;100.00;96083.28;5030525;28;20482;-75
2023/03/31 08:49:18;;;;;;;4.88;2.10;;;10.80;99.90;;;10.39;100.00;96093.47;5028299;28;20447;-74
2023/03/31 08:51:49;;;;;;;6.70;2.35;;;11.10;99.90;;;10.27;100.00;96079.84;5030005;28;20403;-72
2023/03/31 08:54:20;;;;;;;9.03;2.23;;;11.00;99.90;;;10.17;100.00;96082.59;5028653;28;20972;-74
2023/03/31 08:56:49;;;;;;;5.63;2.55;;;11.00;99.90;;;10.30;100.00;96075.88;5028374;28;20410;-70
2023/03/31 08:59:25;;;;;;;7.05;2.30;;;11.10;99.90;;;10.43;100.00;96085.78;5028186;28;20411;-72
2023/03/31 09:02:03;;;;;;;6.75;2.20;;;11.20;99.90;;;10.64;100.00;96078.38;5025701;28;20423;-73
2023/03/31 09:05:13;;;;;;;10.18;2.40;;;11.30;99.90;;;10.91;100.00;96091.00;5021861;28;20425;-73
2023/03/31 09:07:50;;;;;;;5.95;2.15;;;11.50;99.90;;;10.88;100.00;96070.41;5028933;28;20410;-71
2023/03/31 09:10:51;;;;;;;8.60;2.42;;;11.60;99.90;;;10.94;100.00;96091.25;5029265;28;20403;-72
2023/03/31 09:13:45;;;;;;;10.68;2.45;;;11.60;99.90;;;11.03;100.00;96056.97;5007885;28;20446;-72
2023/03/31 09:16:14;;;;;;;6.75;2.42;;;11.70;99.90;;;10.88;100.00;96051.88;5028429;28;20407;-72
2023/03/31 09:18:45;;;;;;;8.50;2.20;;;11.60;99.90;;;10.85;100.00;96050.59;5029376;28;20399;-73
2023/03/31 09:21:19;;;;;;;6.75;2.25;;;11.60;99.90;;;11.04;100.00;96043.47;5028494;28;20509;-73
2023/03/31 09:23:50;;;;;;;6.43;1.77;;;11.70;99.90;;;11.11;100.00;96045.75;5029364;28;20478;-73
2023/03/31 09:26:26;;;;;;;7.22;2.05;;;11.70;99.90;;;11.24;100.00;96045.81;5029636;28;20411;-74
2023/03/31 09:28:57;;;;;;;9.10;2.28;;;11.90;99.90;;;11.01;100.00;96070.50;5030010;28;20896;-72
2023/03/31 09:31:24;;;;;;;10.10;2.53;;;11.80;99.90;;;11.22;100.00;96044.50;5027196;28;20423;-73
2023/03/31 09:33:56;;;;;;;12.77;2.40;;;11.90;99.90;;;11.20;100.00;96049.34;5029695;28;20403;-73
2023/03/31 09:36:22;;;;;;;7.32;2.00;;;11.90;99.90;;;11.05;100.00;96068.84;5028075;28;20423;-74
2023/03/31 09:38:49;;;;;;;13.18;2.08;;;11.90;99.90;;;11.22;100.00;96055.91;5029323;28;20948;-73
2023/03/31 09:41:17;;;;;;;7.43;2.10;;;11.90;99.90;;;11.32;100.00;96046.22;5028892;28;20422;-73
2023/03/31 09:43:45;;;;;;;6.00;2.00;;;12.00;99.90;;;11.08;100.00;96062.97;5028087;28;20422;-72
2023/03/31 09:46:18;;;;;;;8.00;2.27;;;11.90;99.90;;;11.30;100.00;96053.66;5029329;28;20920;-73
2023/03/31 09:48:54;;;;;;;11.18;2.17;;;11.90;99.90;;;11.36;100.00;96039.25;5029377;28;20409;-73
2023/03/31 09:51:29;;;;;;;11.88;2.55;;;12.10;99.90;;;11.81;100.00;96059.78;5026436;28;20541;-74
2023/03/31 09:54:01;;;;;;;9.80;2.33;;;12.30;99.90;;;11.86;100.00;96040.34;5026773;28;20694;-73
2023/03/31 09:56:47;;;;;;;9.68;2.50;;;12.50;99.90;;;12.07;100.00;96030.97;5028187;28;20500;-72
2023/03/31 09:59:16;;;;;;;11.70;2.45;;;12.70;99.90;;;12.34;100.00;96022.22;5030843;28;20769;-72
2023/03/31 10:01:46;;;;;;;7.07;1.83;;;12.90;99.90;;;12.58;100.00;96017.50;5033148;28;20530;-73
2023/03/31 10:04:21;;;;;;;13.13;2.72;;;13.30;99.90;;;12.54;100.00;96011.22;5033000;28;20422;-73
2023/03/31 10:06:48;;;;;;;9.07;2.70;;;13.40;99.90;;;12.76;100.00;96005.19;5032243;28;20851;-74
2023/03/31 10:09:15;;;;;;;7.33;1.90;;;13.50;99.90;;;12.93;100.00;95999.25;5032555;28;20429;-75
2023/03/31 10:11:54;;;;;;;8.82;2.08;;;13.50;99.90;;;13.33;100.00;95994.88;5032108;28;20406;-75
2023/03/31 10:14:26;;;;;;;5.75;1.90;;;13.90;99.90;;;13.96;100.00;95984.00;5032374;28;20980;-74
2023/03/31 10:16:56;;;;;;;9.55;2.35;;;14.60;99.90;;;14.47;100.00;95986.09;5031982;28;20414;-76
2023/03/31 10:19:24;;;;;;;7.72;2.25;;;15.30;99.90;;;14.60;100.00;95990.50;5033003;28;20406;-74
2023/03/31 10:21:57;;;;;;;9.05;2.00;;;15.60;99.90;;;15.11;100.00;95991.66;5032789;28;20816;-75
2023/03/31 10:24:23;;;;;;;6.00;2.00;;;16.10;99.90;;;15.89;100.00;96013.72;5031105;28;20422;-75
2023/03/31 10:26:53;;;;;;;8.13;2.17;;;16.50;99.90;;;16.16;100.00;95999.97;5032494;28;20397;-75
2023/03/31 10:29:25;;;;;;;7.82;2.28;;;16.90;99.90;;;15.89;100.00;95992.38;5032658;28;20410;-74